Salt Lake City International Airport
KSLC : now visible

Airfield :











YOU CAN JOIN US ON...

 
LOGIN :

Register | Disclaimer

   EN    FR    IT 

 









Legend :    VFR   Marginal VFR   IFR   Intensive IFR   Very Intensive IFR
Visi :
Ceiling :
>= 8 km
>= 3000ft
5 to 8 km
1000 to 3000 ft
1500m to 5 km
500 to 1000 ft
800 to 1500m
200 to 500 ft
< 800m
< 200 ft
Symbols :   Thunderstorms  Fog  Heavy snow  Heavy precipitations  Wind > 20 kt






- Airport Elevation : 4227 ft
- IATA code : SLC


KSLC - Salt Lake City International

CURRENT METAR :
  • 271554Z 17017G24KT 10SM FEW075 BKN100 BKN150 BKN200 M01/M09 A3003 RMK AO2 SLP189 VIRGA ACSL DSNT SE AND S T10061089

EXPIRED METARs :
  • 271454Z 18015G22KT 10SM FEW065 BKN080 BKN150 M01/M09 A3001 RMK AO2 PK WND 15027/1415 SLP178 VIRGA ACSL DSNT NE AND SE AND S T10061089 53007
  • 271354Z 17017G24KT 10SM BKN110 M01/M09 A3000 RMK AO2 SLP177 T10061089

TAF KSLC
Valid from the 27 at 15:00 until the 28 at 18:00 UTC


271504Z 2715/2818 17014G24KT P6SM SCT040 BKN080
FM271800 17020G30KT P6SM VCSH SCT030 BKN060
FM280300 18010KT P6SM SCT040 BKN080
KZLC FIR / North America



MET'MAP, your aeronautical weather chart ! - Copyright ORBIFLY December 2007 - Disclaimer

ORBIFLY MET'MAP TEAM :

Programming & Development : Alexandra Zaïnal
Concept & original design : Baudouin d'Aumeries
Assistance for programming : Marc-Olivier Méhu
Technical & hardware support : Manuel Goepfert

Contact : metmap@orbifly.com




SOURCES & CREDITS :

   NOAA       Earth
Advisory